Cincinnati, Ohio
Traffic Map
Current Weather Conditions
Cincinnati, Ohio
Clear
Clear
41°
Feels Like: 41°
Wind Chill: 41° Ceiling: Unl
Heat Index: 41° Visibility: 9mi
Dew Point: 40° Wind: 0mph
Humidity: 96% Direction: ° ()
Pressure: 30.25in Gusts: 0mph
Raw Report DataKLUK 190753Z AUTO 00000KT 9SM CLR 05/04 A3025 RMK AO2 SLP243 T00500044
Traffic Incident Summary
Active as of:
Severity:
Category:
InformationThere was an issue retrieving the traffic information for this location. Please try a different location or try again shortly.
Advertisements
At Last! Intellicast now available for iPhone and Android